Terminal Aerodrome Forecast
Issued by NWS

Home | Current Version | Previous Version | Text Only | Print | Product List | Glossary On
Versions: 1 2 3 4 5 6 7 8 9 10 11 12 13 14 15 16 17 18 19 20 21 22 23 24 25 26 27 28 29
908
FTUS43 KDVN 281130
TAFCID
TAF
KCID 281130Z 2812/2912 32008KT P6SM BKN050
     FM281500 29012KT P6SM SCT040
     FM281900 29016G25KT P6SM SCT050
     FM290100 27007KT P6SM SCT100=

USA.gov is the U.S. government's official web portal to all federal, state and local government web resources and services.